sensor_id;sensor_type;location;lat;lon;timestamp;pressure;altitude;pressure_sealevel;temperature;humidity
74915;BME280;63475;45.140;-75.616;2023-11-19T00:00:55;99935.84;;;2.61;62.01
74915;BME280;63475;45.140;-75.616;2023-11-19T00:02:57;99942.69;;;2.65;63.17
74915;BME280;63475;45.140;-75.616;2023-11-19T00:05:01;99936.63;;;2.63;63.54
74915;BME280;63475;45.140;-75.616;2023-11-19T00:07:03;99935.78;;;2.62;63.08
74915;BME280;63475;45.140;-75.616;2023-11-19T00:09:08;99931.44;;;2.61;62.91
74915;BME280;63475;45.140;-75.616;2023-11-19T00:11:11;99923.88;;;2.55;62.34
74915;BME280;63475;45.140;-75.616;2023-11-19T00:13:17;99934.22;;;2.58;63.01
74915;BME280;63475;45.140;-75.616;2023-11-19T00:15:20;99930.72;;;2.58;63.00
74915;BME280;63475;45.140;-75.616;2023-11-19T00:17:23;99911.91;;;2.48;63.67
74915;BME280;63475;45.140;-75.616;2023-11-19T00:19:26;99938.63;;;2.58;63.47
74915;BME280;63475;45.140;-75.616;2023-11-19T00:21:29;99923.75;;;2.57;63.17
74915;BME280;63475;45.140;-75.616;2023-11-19T00:23:32;99927.44;;;2.54;63.15
74915;BME280;63475;45.140;-75.616;2023-11-19T00:25:35;99916.97;;;2.53;63.11
74915;BME280;63475;45.140;-75.616;2023-11-19T00:27:38;99919.75;;;2.50;63.54
74915;BME280;63475;45.140;-75.616;2023-11-19T00:29:40;99917.97;;;2.50;63.42
74915;BME280;63475;45.140;-75.616;2023-11-19T00:31:43;99915.34;;;2.50;63.59
74915;BME280;63475;45.140;-75.616;2023-11-19T00:33:46;99909.22;;;2.50;64.25
74915;BME280;63475;45.140;-75.616;2023-11-19T00:35:51;99902.31;;;2.47;63.65
74915;BME280;63475;45.140;-75.616;2023-11-19T00:37:53;99906.66;;;2.48;63.90
74915;BME280;63475;45.140;-75.616;2023-11-19T00:39:57;99902.31;;;2.47;63.65
74915;BME280;63475;45.140;-75.616;2023-11-19T00:42:01;99895.56;;;2.42;63.36
74915;BME280;63475;45.140;-75.616;2023-11-19T00:44:03;99900.63;;;2.46;63.69
74915;BME280;63475;45.140;-75.616;2023-11-19T00:46:07;99901.41;;;2.48;63.81
74915;BME280;63475;45.140;-75.616;2023-11-19T00:48:10;99896.19;;;2.47;63.69
74915;BME280;63475;45.140;-75.616;2023-11-19T00:50:13;99888.44;;;2.44;64.32
74915;BME280;63475;45.140;-75.616;2023-11-19T00:52:17;99879.72;;;2.43;64.82
74915;BME280;63475;45.140;-75.616;2023-11-19T00:54:20;99882.34;;;2.43;64.49
74915;BME280;63475;45.140;-75.616;2023-11-19T00:56:23;99861.50;;;2.39;64.92
74915;BME280;63475;45.140;-75.616;2023-11-19T00:58:26;99857.88;;;2.41;64.62
74915;BME280;63475;45.140;-75.616;2023-11-19T01:00:29;99856.00;;;2.43;65.17
74915;BME280;63475;45.140;-75.616;2023-11-19T01:02:34;99845.56;;;2.42;65.25
74915;BME280;63475;45.140;-75.616;2023-11-19T01:04:38;99844.63;;;2.43;65.03
74915;BME280;63475;45.140;-75.616;2023-11-19T01:06:41;99846.50;;;2.41;65.04
74915;BME280;63475;45.140;-75.616;2023-11-19T01:08:47;99836.81;;;2.41;66.03
74915;BME280;63475;45.140;-75.616;2023-11-19T01:10:49;99830.00;;;2.37;65.90
74915;BME280;63475;45.140;-75.616;2023-11-19T01:12:52;99830.84;;;2.38;66.17
74915;BME280;63475;45.140;-75.616;2023-11-19T01:14:55;99833.34;;;2.41;65.66
74915;BME280;63475;45.140;-75.616;2023-11-19T01:16:57;99828.13;;;2.39;65.59
74915;BME280;63475;45.140;-75.616;2023-11-19T01:19:00;99837.81;;;2.39;65.19
74915;BME280;63475;45.140;-75.616;2023-11-19T01:21:18;99830.78;;;2.39;65.41
74915;BME280;63475;45.140;-75.616;2023-11-19T01:23:21;99824.66;;;2.39;65.36
74915;BME280;63475;45.140;-75.616;2023-11-19T01:25:24;99819.47;;;2.37;65.55
74915;BME280;63475;45.140;-75.616;2023-11-19T01:27:27;99820.41;;;2.36;65.28
74915;BME280;63475;45.140;-75.616;2023-11-19T01:29:30;99824.72;;;2.37;65.95
74915;BME280;63475;45.140;-75.616;2023-11-19T01:31:32;99824.88;;;2.34;66.29
74915;BME280;63475;45.140;-75.616;2023-11-19T01:33:36;99825.59;;;2.38;65.21
74915;BME280;63475;45.140;-75.616;2023-11-19T01:35:39;99825.66;;;2.36;65.68
74915;BME280;63475;45.140;-75.616;2023-11-19T01:37:43;99833.56;;;2.36;66.50
74915;BME280;63475;45.140;-75.616;2023-11-19T01:39:45;99822.19;;;2.36;66.45
74915;BME280;63475;45.140;-75.616;2023-11-19T01:42:00;99819.63;;;2.34;66.82
74915;BME280;63475;45.140;-75.616;2023-11-19T01:44:02;99828.28;;;2.36;66.90
74915;BME280;63475;45.140;-75.616;2023-11-19T01:46:06;99817.94;;;2.33;66.92
74915;BME280;63475;45.140;-75.616;2023-11-19T01:48:10;99827.63;;;2.33;67.50
74915;BME280;63475;45.140;-75.616;2023-11-19T01:50:14;99824.88;;;2.34;66.94
74915;BME280;63475;45.140;-75.616;2023-11-19T01:52:20;99818.94;;;2.31;67.01
74915;BME280;63475;45.140;-75.616;2023-11-19T01:54:23;99823.22;;;2.33;67.01
74915;BME280;63475;45.140;-75.616;2023-11-19T01:56:26;99815.38;;;2.32;66.69
74915;BME280;63475;45.140;-75.616;2023-11-19T01:58:34;99825.84;;;2.33;67.18
74915;BME280;63475;45.140;-75.616;2023-11-19T02:00:36;99835.59;;;2.31;67.00
74915;BME280;63475;45.140;-75.616;2023-11-19T02:02:40;99833.72;;;2.33;67.43
74915;BME280;63475;45.140;-75.616;2023-11-19T02:04:44;99837.28;;;2.32;67.71
74915;BME280;63475;45.140;-75.616;2023-11-19T02:06:48;99826.75;;;2.32;67.61
74915;BME280;63475;45.140;-75.616;2023-11-19T02:08:52;99818.09;;;2.30;67.38
74915;BME280;63475;45.140;-75.616;2023-11-19T02:10:56;99817.25;;;2.30;67.86
74915;BME280;63475;45.140;-75.616;2023-11-19T02:13:02;99814.53;;;2.31;67.87
74915;BME280;63475;45.140;-75.616;2023-11-19T02:15:08;99802.22;;;2.32;68.12
74915;BME280;63475;45.140;-75.616;2023-11-19T02:17:30;99804.84;;;2.32;68.30
74915;BME280;63475;45.140;-75.616;2023-11-19T02:19:36;99798.75;;;2.31;67.27
74915;BME280;63475;45.140;-75.616;2023-11-19T02:21:40;99795.34;;;2.29;67.74
74915;BME280;63475;45.140;-75.616;2023-11-19T02:23:45;99799.59;;;2.32;67.95
74915;BME280;63475;45.140;-75.616;2023-11-19T02:25:58;99781.41;;;2.27;67.85
74915;BME280;63475;45.140;-75.616;2023-11-19T02:28:03;99783.97;;;2.28;68.54
74915;BME280;63475;45.140;-75.616;2023-11-19T02:30:07;99777.84;;;2.28;68.59
74915;BME280;63475;45.140;-75.616;2023-11-19T02:32:10;99773.59;;;2.25;67.92
74915;BME280;63475;45.140;-75.616;2023-11-19T02:34:16;99780.56;;;2.26;67.64
74915;BME280;63475;45.140;-75.616;2023-11-19T02:36:19;99769.31;;;2.23;68.08
74915;BME280;63475;45.140;-75.616;2023-11-19T02:38:21;99766.53;;;2.26;68.21
74915;BME280;63475;45.140;-75.616;2023-11-19T02:40:24;99763.13;;;2.24;68.05
74915;BME280;63475;45.140;-75.616;2023-11-19T02:42:27;99766.53;;;2.26;68.82
74915;BME280;63475;45.140;-75.616;2023-11-19T02:44:31;99754.47;;;2.22;68.80
74915;BME280;63475;45.140;-75.616;2023-11-19T02:46:33;99752.59;;;2.24;68.12
74915;BME280;63475;45.140;-75.616;2023-11-19T02:48:36;99749.97;;;2.24;68.39
74915;BME280;63475;45.140;-75.616;2023-11-19T02:50:39;99740.53;;;2.20;68.44
74915;BME280;63475;45.140;-75.616;2023-11-19T02:52:44;99748.28;;;2.23;68.77
74915;BME280;63475;45.140;-75.616;2023-11-19T02:54:48;99747.50;;;2.21;69.49
74915;BME280;63475;45.140;-75.616;2023-11-19T02:56:50;99738.84;;;2.19;68.39
74915;BME280;63475;45.140;-75.616;2023-11-19T02:58:57;99737.91;;;2.20;69.41
74915;BME280;63475;45.140;-75.616;2023-11-19T03:01:00;99739.75;;;2.18;69.35
74915;BME280;63475;45.140;-75.616;2023-11-19T03:03:12;99724.28;;;2.12;68.45
74915;BME280;63475;45.140;-75.616;2023-11-19T03:05:23;99728.59;;;2.13;69.11
74915;BME280;63475;45.140;-75.616;2023-11-19T03:07:26;99730.50;;;2.11;68.86
74915;BME280;63475;45.140;-75.616;2023-11-19T03:09:29;99724.28;;;2.12;68.95
74915;BME280;63475;45.140;-75.616;2023-11-19T03:11:32;99716.63;;;2.07;69.10
74915;BME280;63475;45.140;-75.616;2023-11-19T03:13:35;99717.50;;;2.08;69.55
74915;BME280;63475;45.140;-75.616;2023-11-19T03:15:37;99714.09;;;2.06;69.69
74915;BME280;63475;45.140;-75.616;2023-11-19T03:17:41;99716.63;;;2.07;69.83
74915;BME280;63475;45.140;-75.616;2023-11-19T03:19:45;99720.13;;;2.08;69.76
74915;BME280;63475;45.140;-75.616;2023-11-19T03:21:48;99715.00;;;2.05;69.22
74915;BME280;63475;45.140;-75.616;2023-11-19T03:23:51;99710.69;;;2.04;69.39
74915;BME280;63475;45.140;-75.616;2023-11-19T03:25:54;99706.50;;;2.00;69.66
74915;BME280;63475;45.140;-75.616;2023-11-19T03:27:57;99692.56;;;1.98;69.53
74915;BME280;63475;45.140;-75.616;2023-11-19T03:30:05;99687.47;;;1.94;69.26
74915;BME280;63475;45.140;-75.616;2023-11-19T03:32:08;99709.41;;;1.93;69.57
74915;BME280;63475;45.140;-75.616;2023-11-19T03:34:10;99694.81;;;1.88;69.50
74915;BME280;63475;45.140;-75.616;2023-11-19T03:36:13;99700.75;;;1.91;69.25
74915;BME280;63475;45.140;-75.616;2023-11-19T03:38:16;99699.91;;;1.91;70.12
74915;BME280;63475;45.140;-75.616;2023-11-19T03:40:19;99707.88;;;1.89;70.54
74915;BME280;63475;45.140;-75.616;2023-11-19T03:42:22;99686.16;;;1.86;70.41
74915;BME280;63475;45.140;-75.616;2023-11-19T03:44:26;99693.97;;;1.87;69.95
74915;BME280;63475;45.140;-75.616;2023-11-19T03:46:29;99675.94;;;1.80;70.63
74915;BME280;63475;45.140;-75.616;2023-11-19T03:48:33;99692.34;;;1.85;70.55
74915;BME280;63475;45.140;-75.616;2023-11-19T03:50:36;99688.00;;;1.84;71.33
74915;BME280;63475;45.140;-75.616;2023-11-19T03:52:38;99685.47;;;1.82;70.31
74915;BME280;63475;45.140;-75.616;2023-11-19T03:54:44;99688.88;;;1.84;70.51
74915;BME280;63475;45.140;-75.616;2023-11-19T03:56:48;99675.88;;;1.81;70.73
74915;BME280;63475;45.140;-75.616;2023-11-19T03:58:51;99686.31;;;1.83;70.47
74915;BME280;63475;45.140;-75.616;2023-11-19T04:00:54;99683.75;;;1.81;70.94
74915;BME280;63475;45.140;-75.616;2023-11-19T04:02:57;99673.53;;;1.75;71.07
74915;BME280;63475;45.140;-75.616;2023-11-19T04:05:00;99671.69;;;1.77;71.46
74915;BME280;63475;45.140;-75.616;2023-11-19T04:07:03;99676.88;;;1.79;70.51
74915;BME280;63475;45.140;-75.616;2023-11-19T04:09:06;99679.56;;;1.77;70.18
74915;BME280;63475;45.140;-75.616;2023-11-19T04:11:10;99676.25;;;1.74;70.60
74915;BME280;63475;45.140;-75.616;2023-11-19T04:13:12;99673.53;;;1.75;71.35
74915;BME280;63475;45.140;-75.616;2023-11-19T04:15:15;99673.53;;;1.75;70.89
74915;BME280;63475;45.140;-75.616;2023-11-19T04:17:19;99672.69;;;1.75;71.33
74915;BME280;63475;45.140;-75.616;2023-11-19T04:19:21;99678.78;;;1.75;71.10
74915;BME280;63475;45.140;-75.616;2023-11-19T04:21:24;99670.06;;;1.75;70.95
74915;BME280;63475;45.140;-75.616;2023-11-19T04:23:26;99663.31;;;1.69;70.98
74915;BME280;63475;45.140;-75.616;2023-11-19T04:25:30;99667.56;;;1.72;70.58
74915;BME280;63475;45.140;-75.616;2023-11-19T04:27:32;99663.31;;;1.69;70.74
74915;BME280;63475;45.140;-75.616;2023-11-19T04:29:35;99661.47;;;1.71;70.87
74915;BME280;63475;45.140;-75.616;2023-11-19T04:31:37;99662.38;;;1.70;71.16
74915;BME280;63475;45.140;-75.616;2023-11-19T04:33:40;99652.78;;;1.69;71.22
74915;BME280;63475;45.140;-75.616;2023-11-19T04:35:43;99651.88;;;1.70;71.13
74915;BME280;63475;45.140;-75.616;2023-11-19T04:37:45;99652.78;;;1.69;71.27
74915;BME280;63475;45.140;-75.616;2023-11-19T04:39:49;99650.88;;;1.73;70.96
74915;BME280;63475;45.140;-75.616;2023-11-19T04:41:52;99644.84;;;1.71;70.77
74915;BME280;63475;45.140;-75.616;2023-11-19T04:43:55;99643.06;;;1.71;71.34
74915;BME280;63475;45.140;-75.616;2023-11-19T04:45:58;99636.09;;;1.70;70.92
74915;BME280;63475;45.140;-75.616;2023-11-19T04:48:02;99645.63;;;1.73;71.18
74915;BME280;63475;45.140;-75.616;2023-11-19T04:50:05;99643.13;;;1.70;71.25
74915;BME280;63475;45.140;-75.616;2023-11-19T04:52:08;99641.28;;;1.72;71.30
74915;BME280;63475;45.140;-75.616;2023-11-19T04:54:11;99641.28;;;1.72;71.25
74915;BME280;63475;45.140;-75.616;2023-11-19T04:56:14;99633.31;;;1.73;71.02
74915;BME280;63475;45.140;-75.616;2023-11-19T04:58:18;99628.06;;;1.73;70.96
74915;BME280;63475;45.140;-75.616;2023-11-19T05:00:22;99629.06;;;1.71;70.95
74915;BME280;63475;45.140;-75.616;2023-11-19T05:02:24;99631.63;;;1.72;71.30
74915;BME280;63475;45.140;-75.616;2023-11-19T05:04:27;99622.88;;;1.72;70.95
74915;BME280;63475;45.140;-75.616;2023-11-19T05:06:31;99623.72;;;1.72;71.28
74915;BME280;63475;45.140;-75.616;2023-11-19T05:08:33;99615.16;;;1.69;71.28
74915;BME280;63475;45.140;-75.616;2023-11-19T05:10:37;99619.41;;;1.71;71.08
74915;BME280;63475;45.140;-75.616;2023-11-19T05:12:39;99622.81;;;1.73;71.05
74915;BME280;63475;45.140;-75.616;2023-11-19T05:14:43;99617.69;;;1.70;71.50
74915;BME280;63475;45.140;-75.616;2023-11-19T05:16:51;99618.56;;;1.71;71.28
74915;BME280;63475;45.140;-75.616;2023-11-19T05:18:54;99598.72;;;1.65;71.25
74915;BME280;63475;45.140;-75.616;2023-11-19T05:20:56;99615.00;;;1.72;71.79
74915;BME280;63475;45.140;-75.616;2023-11-19T05:22:59;99617.56;;;1.73;71.45
74915;BME280;63475;45.140;-75.616;2023-11-19T05:25:05;99602.09;;;1.67;71.70
74915;BME280;63475;45.140;-75.616;2023-11-19T05:27:08;99608.88;;;1.71;71.69
74915;BME280;63475;45.140;-75.616;2023-11-19T05:29:13;99613.38;;;1.69;72.00
74915;BME280;63475;45.140;-75.616;2023-11-19T05:31:17;99614.91;;;1.73;71.65
74915;BME280;63475;45.140;-75.616;2023-11-19T05:33:20;99609.75;;;1.72;71.72
74915;BME280;63475;45.140;-75.616;2023-11-19T05:35:23;99607.19;;;1.70;72.07
74915;BME280;63475;45.140;-75.616;2023-11-19T05:37:25;99612.28;;;1.73;71.82
74915;BME280;63475;45.140;-75.616;2023-11-19T05:39:28;99609.75;;;1.72;71.35
74915;BME280;63475;45.140;-75.616;2023-11-19T05:41:31;99607.19;;;1.70;71.76
74915;BME280;63475;45.140;-75.616;2023-11-19T05:43:33;99609.81;;;1.70;71.85
74915;BME280;63475;45.140;-75.616;2023-11-19T05:45:36;99605.47;;;1.69;71.86
74915;BME280;63475;45.140;-75.616;2023-11-19T05:47:40;99602.84;;;1.69;72.62
74915;BME280;63475;45.140;-75.616;2023-11-19T05:49:43;99601.94;;;1.70;71.54
74915;BME280;63475;45.140;-75.616;2023-11-19T05:51:46;99606.34;;;1.70;72.07
74915;BME280;63475;45.140;-75.616;2023-11-19T05:53:49;99608.88;;;1.71;72.07
74915;BME280;63475;45.140;-75.616;2023-11-19T05:55:52;99602.84;;;1.69;72.45
74915;BME280;63475;45.140;-75.616;2023-11-19T05:57:58;99598.53;;;1.68;72.01
74915;BME280;63475;45.140;-75.616;2023-11-19T06:00:01;99601.06;;;1.70;72.26
74915;BME280;63475;45.140;-75.616;2023-11-19T06:02:04;99601.06;;;1.70;71.90
74915;BME280;63475;45.140;-75.616;2023-11-19T06:04:07;99594.91;;;1.71;71.80
74915;BME280;63475;45.140;-75.616;2023-11-19T06:06:10;99593.19;;;1.70;71.91
74915;BME280;63475;45.140;-75.616;2023-11-19T06:08:13;99599.31;;;1.70;71.87
74915;BME280;63475;45.140;-75.616;2023-11-19T06:10:16;99594.97;;;1.69;72.18
74915;BME280;63475;45.140;-75.616;2023-11-19T06:12:19;99594.13;;;1.69;72.26
74915;BME280;63475;45.140;-75.616;2023-11-19T06:14:22;99588.78;;;1.70;72.07
74915;BME280;63475;45.140;-75.616;2023-11-19T06:16:26;99594.81;;;1.72;72.53
74915;BME280;63475;45.140;-75.616;2023-11-19T06:18:29;99598.22;;;1.74;72.60
74915;BME280;63475;45.140;-75.616;2023-11-19T06:20:33;99600.84;;;1.74;72.32
74915;BME280;63475;45.140;-75.616;2023-11-19T06:22:39;99598.22;;;1.74;72.64
74915;BME280;63475;45.140;-75.616;2023-11-19T06:24:44;99596.53;;;1.73;72.95
74915;BME280;63475;45.140;-75.616;2023-11-19T06:26:47;99600.78;;;1.76;72.78
74915;BME280;63475;45.140;-75.616;2023-11-19T06:28:49;99603.34;;;1.77;72.64
74915;BME280;63475;45.140;-75.616;2023-11-19T06:30:52;99605.03;;;1.78;72.40
74915;BME280;63475;45.140;-75.616;2023-11-19T06:32:55;99612.84;;;1.80;72.18
74915;BME280;63475;45.140;-75.616;2023-11-19T06:34:58;99610.28;;;1.78;72.04
74915;BME280;63475;45.140;-75.616;2023-11-19T06:37:01;99605.03;;;1.78;72.03
74915;BME280;63475;45.140;-75.616;2023-11-19T06:39:06;99605.03;;;1.78;71.99
74915;BME280;63475;45.140;-75.616;2023-11-19T06:41:09;99611.84;;;1.82;71.90
74915;BME280;63475;45.140;-75.616;2023-11-19T06:43:12;99604.09;;;1.79;71.63
74915;BME280;63475;45.140;-75.616;2023-11-19T06:45:16;99609.38;;;1.79;71.69
74915;BME280;63475;45.140;-75.616;2023-11-19T06:47:19;99619.81;;;1.81;71.61
74915;BME280;63475;45.140;-75.616;2023-11-19T06:49:22;99611.00;;;1.82;71.90
74915;BME280;63475;45.140;-75.616;2023-11-19T06:51:25;99609.50;;;1.76;71.91
74915;BME280;63475;45.140;-75.616;2023-11-19T06:53:27;99608.34;;;1.82;71.68
74915;BME280;63475;45.140;-75.616;2023-11-19T06:55:30;99607.50;;;1.81;71.82
74915;BME280;63475;45.140;-75.616;2023-11-19T06:57:33;99606.72;;;1.79;72.07
74915;BME280;63475;45.140;-75.616;2023-11-19T06:59:36;99613.53;;;1.83;71.81
74915;BME280;63475;45.140;-75.616;2023-11-19T07:01:38;99611.00;;;1.82;71.94
74915;BME280;63475;45.140;-75.616;2023-11-19T07:03:41;99619.66;;;1.84;72.04
74915;BME280;63475;45.140;-75.616;2023-11-19T07:05:47;99611.69;;;1.85;71.94
74915;BME280;63475;45.140;-75.616;2023-11-19T07:07:49;99610.13;;;1.81;72.05
74915;BME280;63475;45.140;-75.616;2023-11-19T07:09:52;99617.09;;;1.82;71.96
74915;BME280;63475;45.140;-75.616;2023-11-19T07:11:55;99617.88;;;1.84;71.91
74915;BME280;63475;45.140;-75.616;2023-11-19T07:13:59;99611.84;;;1.82;71.80
74915;BME280;63475;45.140;-75.616;2023-11-19T07:16:03;99610.84;;;1.85;71.79
74915;BME280;63475;45.140;-75.616;2023-11-19T07:18:05;99613.47;;;1.85;71.62
74915;BME280;63475;45.140;-75.616;2023-11-19T07:20:09;99612.53;;;1.86;71.98
74915;BME280;63475;45.140;-75.616;2023-11-19T07:22:15;99613.38;;;1.86;71.77
74915;BME280;63475;45.140;-75.616;2023-11-19T07:24:18;99615.25;;;1.84;72.17
74915;BME280;63475;45.140;-75.616;2023-11-19T07:26:21;99609.06;;;1.85;71.99
74915;BME280;63475;45.140;-75.616;2023-11-19T07:28:24;99617.78;;;1.86;72.04
74915;BME280;63475;45.140;-75.616;2023-11-19T07:30:27;99609.13;;;1.84;71.82
74915;BME280;63475;45.140;-75.616;2023-11-19T07:32:30;99619.50;;;1.87;71.97
74915;BME280;63475;45.140;-75.616;2023-11-19T07:34:34;99619.56;;;1.85;72.08
74915;BME280;63475;45.140;-75.616;2023-11-19T07:36:37;99608.44;;;1.80;72.15
74915;BME280;63475;45.140;-75.616;2023-11-19T07:38:40;99608.44;;;1.80;72.02
74915;BME280;63475;45.140;-75.616;2023-11-19T07:40:42;99612.00;;;1.79;71.92
74915;BME280;63475;45.140;-75.616;2023-11-19T07:42:58;99613.69;;;1.80;71.83
74915;BME280;63475;45.140;-75.616;2023-11-19T07:45:00;99625.22;;;1.78;72.27
74915;BME280;63475;45.140;-75.616;2023-11-19T07:47:04;99622.59;;;1.78;72.04
74915;BME280;63475;45.140;-75.616;2023-11-19T07:49:07;99623.50;;;1.77;72.09
74915;BME280;63475;45.140;-75.616;2023-11-19T07:51:11;99621.72;;;1.77;72.22
74915;BME280;63475;45.140;-75.616;2023-11-19T07:53:15;99620.97;;;1.75;72.04
74915;BME280;63475;45.140;-75.616;2023-11-19T07:55:20;99620.97;;;1.75;72.29
74915;BME280;63475;45.140;-75.616;2023-11-19T07:57:23;99616.56;;;1.76;72.20
74915;BME280;63475;45.140;-75.616;2023-11-19T07:59:27;99614.06;;;1.73;72.25
74915;BME280;63475;45.140;-75.616;2023-11-19T08:01:30;99608.88;;;1.71;72.09
74915;BME280;63475;45.140;-75.616;2023-11-19T08:03:33;99621.97;;;1.73;72.24
74915;BME280;63475;45.140;-75.616;2023-11-19T08:05:39;99621.09;;;1.72;71.96
74915;BME280;63475;45.140;-75.616;2023-11-19T08:07:41;99618.63;;;1.69;72.31
74915;BME280;63475;45.140;-75.616;2023-11-19T08:09:44;99617.69;;;1.70;72.02
74915;BME280;63475;45.140;-75.616;2023-11-19T08:11:47;99620.47;;;1.67;72.01
74915;BME280;63475;45.140;-75.616;2023-11-19T08:13:50;99625.50;;;1.72;71.86
74915;BME280;63475;45.140;-75.616;2023-11-19T08:15:52;99626.38;;;1.72;72.00
74915;BME280;63475;45.140;-75.616;2023-11-19T08:17:55;99630.78;;;1.72;72.12
74915;BME280;63475;45.140;-75.616;2023-11-19T08:19:58;99622.97;;;1.70;72.23
74915;BME280;63475;45.140;-75.616;2023-11-19T08:22:03;99631.69;;;1.71;72.05
74915;BME280;63475;45.140;-75.616;2023-11-19T08:24:05;99634.47;;;1.68;71.66
74915;BME280;63475;45.140;-75.616;2023-11-19T08:26:08;99630.13;;;1.67;72.04
74915;BME280;63475;45.140;-75.616;2023-11-19T08:28:11;99624.06;;;1.66;72.10
74915;BME280;63475;45.140;-75.616;2023-11-19T08:30:14;99633.63;;;1.67;72.15
74915;BME280;63475;45.140;-75.616;2023-11-19T08:32:17;99637.22;;;1.66;72.18
74915;BME280;63475;45.140;-75.616;2023-11-19T08:34:19;99637.09;;;1.68;72.09
74915;BME280;63475;45.140;-75.616;2023-11-19T08:36:22;99637.34;;;1.63;71.93
74915;BME280;63475;45.140;-75.616;2023-11-19T08:38:25;99632.19;;;1.62;72.21
74915;BME280;63475;45.140;-75.616;2023-11-19T08:40:32;99640.28;;;1.57;72.55
74915;BME280;63475;45.140;-75.616;2023-11-19T08:42:35;99655.81;;;1.62;72.24
74915;BME280;63475;45.140;-75.616;2023-11-19T08:44:39;99655.81;;;1.62;72.57
74915;BME280;63475;45.140;-75.616;2023-11-19T08:46:50;99647.25;;;1.58;72.46
74915;BME280;63475;45.140;-75.616;2023-11-19T08:48:53;99651.72;;;1.56;72.27
74915;BME280;63475;45.140;-75.616;2023-11-19T08:50:58;99646.59;;;1.53;72.51
74915;BME280;63475;45.140;-75.616;2023-11-19T08:53:01;99655.34;;;1.53;72.70
74915;BME280;63475;45.140;-75.616;2023-11-19T08:55:05;99662.38;;;1.53;72.46
74915;BME280;63475;45.140;-75.616;2023-11-19T08:57:07;99664.31;;;1.49;72.52
74915;BME280;63475;45.140;-75.616;2023-11-19T08:59:11;99665.94;;;1.52;72.58
74915;BME280;63475;45.140;-75.616;2023-11-19T09:01:15;99664.22;;;1.51;72.60
74915;BME280;63475;45.140;-75.616;2023-11-19T09:03:18;99673.81;;;1.52;72.64
74915;BME280;63475;45.140;-75.616;2023-11-19T09:05:20;99670.63;;;1.45;72.27
74915;BME280;63475;45.140;-75.616;2023-11-19T09:07:23;99677.44;;;1.49;72.63
74915;BME280;63475;45.140;-75.616;2023-11-19T09:09:26;99674.88;;;1.48;72.31
74915;BME280;63475;45.140;-75.616;2023-11-19T09:11:29;99674.03;;;1.47;72.38
74915;BME280;63475;45.140;-75.616;2023-11-19T09:13:33;99677.81;;;1.42;72.64
74915;BME280;63475;45.140;-75.616;2023-11-19T09:15:35;99681.31;;;1.42;72.28
74915;BME280;63475;45.140;-75.616;2023-11-19T09:17:38;99686.56;;;1.42;72.21
74915;BME280;63475;45.140;-75.616;2023-11-19T09:19:41;99691.09;;;1.39;72.61
74915;BME280;63475;45.140;-75.616;2023-11-19T09:21:44;99700.00;;;1.36;72.71
74915;BME280;63475;45.140;-75.616;2023-11-19T09:23:46;99708.94;;;1.32;73.17
74915;BME280;63475;45.140;-75.616;2023-11-19T09:25:52;99699.63;;;1.25;72.66
74915;BME280;63475;45.140;-75.616;2023-11-19T09:27:54;99709.28;;;1.24;73.14
74915;BME280;63475;45.140;-75.616;2023-11-19T09:29:57;99711.13;;;1.22;72.87
74915;BME280;63475;45.140;-75.616;2023-11-19T09:32:01;99727.59;;;1.26;72.96
74915;BME280;63475;45.140;-75.616;2023-11-19T09:34:06;99728.44;;;1.27;72.82
74915;BME280;63475;45.140;-75.616;2023-11-19T09:36:12;99721.75;;;1.21;73.10
74915;BME280;63475;45.140;-75.616;2023-11-19T09:38:17;99731.28;;;1.22;73.14
74915;BME280;63475;45.140;-75.616;2023-11-19T09:40:20;99735.78;;;1.20;73.30
74915;BME280;63475;45.140;-75.616;2023-11-19T09:42:24;99739.41;;;1.17;73.34
74915;BME280;63475;45.140;-75.616;2023-11-19T09:44:27;99736.00;;;1.15;73.28
74915;BME280;63475;45.140;-75.616;2023-11-19T09:46:30;99742.03;;;1.17;73.17
74915;BME280;63475;45.140;-75.616;2023-11-19T09:48:35;99755.09;;;1.19;73.36
74915;BME280;63475;45.140;-75.616;2023-11-19T09:50:40;99751.75;;;1.15;73.39
74915;BME280;63475;45.140;-75.616;2023-11-19T09:52:44;99754.38;;;1.15;73.32
74915;BME280;63475;45.140;-75.616;2023-11-19T09:54:47;99750.19;;;1.11;73.35
74915;BME280;63475;45.140;-75.616;2023-11-19T09:56:52;99748.56;;;1.09;73.47
74915;BME280;63475;45.140;-75.616;2023-11-19T09:58:56;99755.50;;;1.10;73.15
74915;BME280;63475;45.140;-75.616;2023-11-19T10:00:59;99747.03;;;1.03;73.54
74915;BME280;63475;45.140;-75.616;2023-11-19T10:03:23;99750.38;;;1.07;73.26
74915;BME280;63475;45.140;-75.616;2023-11-19T10:05:26;99751.38;;;1.04;73.35
74915;BME280;63475;45.140;-75.616;2023-11-19T10:07:30;99754.84;;;1.05;73.31
74915;BME280;63475;45.140;-75.616;2023-11-19T10:09:33;99753.16;;;1.04;73.08
74915;BME280;63475;45.140;-75.616;2023-11-19T10:11:36;99746.44;;;0.98;72.98
74915;BME280;63475;45.140;-75.616;2023-11-19T10:13:39;99757.56;;;1.03;72.95
74915;BME280;63475;45.140;-75.616;2023-11-19T10:15:43;99747.34;;;0.97;73.05
74915;BME280;63475;45.140;-75.616;2023-11-19T10:17:46;99743.16;;;0.93;73.08
74915;BME280;63475;45.140;-75.616;2023-11-19T10:19:49;99736.25;;;0.90;73.44
74915;BME280;63475;45.140;-75.616;2023-11-19T10:21:52;99747.63;;;0.91;73.29
74915;BME280;63475;45.140;-75.616;2023-11-19T10:23:56;99749.31;;;0.92;73.44
74915;BME280;63475;45.140;-75.616;2023-11-19T10:26:05;99756.41;;;0.90;72.89
74915;BME280;63475;45.140;-75.616;2023-11-19T10:28:07;99748.59;;;0.88;73.27
74915;BME280;63475;45.140;-75.616;2023-11-19T10:30:10;99750.31;;;0.89;73.57
74915;BME280;63475;45.140;-75.616;2023-11-19T10:32:14;99750.44;;;0.86;74.47
74915;BME280;63475;45.140;-75.616;2023-11-19T10:34:28;99751.44;;;0.84;75.10
74915;BME280;63475;45.140;-75.616;2023-11-19T10:36:39;99754.97;;;0.83;75.60
74915;BME280;63475;45.140;-75.616;2023-11-19T10:38:53;99754.06;;;0.84;74.40
74915;BME280;63475;45.140;-75.616;2023-11-19T10:40:56;99756.81;;;0.81;73.98
74915;BME280;63475;45.140;-75.616;2023-11-19T10:43:03;99754.19;;;0.81;73.67
74915;BME280;63475;45.140;-75.616;2023-11-19T10:45:22;99760.50;;;0.77;73.54
74915;BME280;63475;45.140;-75.616;2023-11-19T10:47:25;99767.44;;;0.78;73.25